Klaipeda, Lithuania

11:26 AM EET Novembris 16, 2018 (GMT +0200)
Klaipeda City | | Change Station

Elev 288 ft 55.67 °N, 21.16 °E | Updated 1 minute ago

Daļēji mākoņains
Daļēji mākoņains
44.1 °F
Feels Like 44 °F
Z
2.7
Vējš Mainîgs Vējš no Dienvidi
Gusts 6.3 jūdzes stundā

Šodien
Augsts -- | Zems -- °F
--% Iespējami nokrišņi
Vakardiena
Augsts -- | Zems -- °F
Precip. -- collas
Spiediens 30.74 collas
Redzamība 6.2 jūdzes
Mākoņi Apmācies 4100 ft
Auksts vējš 44 °F
Rasas punkts 42 °F
Mitrums 91%
Nokrišņi 0.00 collas
Sniega biezums Not available.
8:12 AM 4:27 PM
Pirmais ceturksnis, 57% visible
METAR EVLA 160920Z AUTO 18008KT 9999 OVC041/// 08/05 Q1041
Spiediens 30.74 collas
Redzamība 6.2 jūdzes
Mākoņi Apmācies 4100 ft
Auksts vējš 44 °F
Rasas punkts 42 °F
Mitrums 91%
Nokrišņi 0.00 collas
Sniega biezums Not available.
8:12 AM 4:27 PM
Pirmais ceturksnis, 57% visible
METAR EVLA 160920Z AUTO 18008KT 9999 OVC041/// 08/05 Q1041

Get Severe Weather Alerts

Thanks for signing up!

Be on the lookout for a verification email in your inbox.

You'll start receiving the daily forecast at 6 AM.

×

10-Day Weather Forecast

×

Almanac

Astronomija

Nov. 16, 2018 Lēkts Riets
Faktiskais laiks
Civilā krēsla
Jūras krēsla
Astronomiskā krēsla
Mēness
Redzamās gaismas garums
Dienas garums
Tomorrow will be .
, % of the Moon is Illuminated

Šodienas ekstrēmi

Country Highs Country Lows

Community

WunderPhotos

Category 6

Welcome to Category 6. This is the collective home for Weather Underground's featured writeups by Dr. Jeff Masters (right), Bob Henson (left), Chris Burt, and other regular contributors.

Nearby

Gaisa kvalitāte

  Gaisa kvalitāte Gaisa kvalitātes indekss Piesārņotājs
Not available.

Sniega biezums

Station Depth Pacelšana

Zemestrīču aktivitātes

Pilsēta Distance Mag. Time & Date
Minimum magnitude displayed is 2.5.

Piekrastes ūdens temperatūra

Vieta Temperatūra

Stations

Tuvākās meteoroloģiskās stacijas

Stacijas atrašanās vieta Temp. Auksts vējš Rasas punkts Mitrums Vējš Precip. Elev Atjaunots Tips